Time;durP1;ratioP1;P1;durP2;ratioP2;P2;SDS_P1;SDS_P2;PMS_P1;PMS_P2;Temp;Humidity;BMP_temperature;BMP_pressure;BME280_temperature;BME280_humidity;BME280_pressure;Samples;Min_cycle;Max_cycle;Signal;HPM_P1;HPM_P2
2022/04/30 00:02:07;;;;;;;5.28;3.70;;;6.40;99.90;;;;;;5031696;28;20029;-72
2022/04/30 00:04:37;;;;;;;6.50;3.97;;;6.30;99.90;;;;;;5035849;28;20116;-73
2022/04/30 00:07:06;;;;;;;5.97;3.67;;;6.20;99.90;;;;;;5034950;28;20025;-73
2022/04/30 00:09:32;;;;;;;6.30;4.18;;;6.20;99.90;;;;;;5036140;28;20485;-72
2022/04/30 00:11:59;;;;;;;9.65;4.30;;;6.20;99.90;;;;;;5035604;28;20041;-72
2022/04/30 00:14:26;;;;;;;6.05;4.30;;;6.30;99.90;;;;;;5035184;28;20033;-72
2022/04/30 00:16:51;;;;;;;11.57;4.20;;;6.30;99.90;;;;;;5035379;28;20086;-73
2022/04/30 00:19:19;;;;;;;9.32;4.57;;;6.20;99.90;;;;;;5034958;28;20031;-73
2022/04/30 00:21:44;;;;;;;6.07;4.97;;;6.20;99.90;;;;;;5035839;28;20035;-72
2022/04/30 00:24:10;;;;;;;7.38;4.78;;;6.10;99.90;;;;;;5035398;28;20108;-72
2022/04/30 00:26:38;;;;;;;11.35;6.03;;;6.10;99.90;;;;;;5033706;28;20408;-74
2022/04/30 00:29:04;;;;;;;13.80;5.20;;;6.10;99.90;;;;;;5035561;28;20044;-71
2022/04/30 00:31:30;;;;;;;9.07;5.07;;;6.20;99.90;;;;;;5036229;28;20033;-72
2022/04/30 00:33:56;;;;;;;9.63;4.97;;;6.20;99.90;;;;;;5034888;28;20017;-72
2022/04/30 00:36:22;;;;;;;9.32;5.28;;;6.30;99.90;;;;;;5035805;28;20561;-72
2022/04/30 00:38:47;;;;;;;13.27;5.53;;;6.30;99.90;;;;;;5035610;28;20462;-72
2022/04/30 00:41:14;;;;;;;12.18;6.07;;;6.40;99.90;;;;;;5035023;28;20032;-72
2022/04/30 00:43:48;;;;;;;7.90;5.30;;;6.40;99.90;;;;;;5035899;28;20513;-71
2022/04/30 00:46:15;;;;;;;15.30;5.82;;;6.30;99.90;;;;;;5035996;28;20030;-71
2022/04/30 00:48:42;;;;;;;15.80;6.50;;;6.30;99.90;;;;;;5035049;28;20100;-73
2022/04/30 00:51:13;;;;;;;10.40;6.05;;;6.30;99.90;;;;;;5035342;28;20550;-71
2022/04/30 00:53:40;;;;;;;11.18;6.13;;;6.20;99.90;;;;;;5035639;28;20045;-73
2022/04/30 00:56:12;;;;;;;9.30;6.70;;;6.20;99.90;;;;;;5033562;28;20050;-74
2022/04/30 00:58:42;;;;;;;12.27;7.25;;;6.20;99.90;;;;;;5034432;28;20034;-73
2022/04/30 01:01:08;;;;;;;10.25;6.38;;;6.20;99.90;;;;;;5033787;28;20183;-73
2022/04/30 01:03:34;;;;;;;9.65;6.80;;;6.20;99.90;;;;;;5033871;28;20029;-72
2022/04/30 01:06:00;;;;;;;8.73;6.53;;;6.30;99.90;;;;;;5033691;28;20025;-72
2022/04/30 01:08:30;;;;;;;12.80;7.22;;;6.30;99.90;;;;;;5033327;28;20148;-72
2022/04/30 01:10:59;;;;;;;12.48;7.90;;;6.30;99.90;;;;;;5033330;28;20032;-72
2022/04/30 01:13:25;;;;;;;12.30;7.30;;;6.20;99.90;;;;;;5033516;28;20104;-72
2022/04/30 01:15:51;;;;;;;15.05;7.35;;;6.30;99.90;;;;;;5032659;28;20037;-71
2022/04/30 01:18:17;;;;;;;12.35;6.80;;;6.30;99.90;;;;;;5033809;28;20033;-72
2022/04/30 01:20:50;;;;;;;11.43;7.28;;;6.20;99.90;;;;;;5033774;28;20025;-73
2022/04/30 01:23:18;;;;;;;9.70;6.28;;;6.20;99.90;;;;;;5032729;28;20436;-72
2022/04/30 01:25:46;;;;;;;13.80;6.68;;;6.20;99.90;;;;;;5033404;28;20536;-72
2022/04/30 01:28:12;;;;;;;10.02;5.38;;;6.20;99.90;;;;;;5033225;28;20088;-74
2022/04/30 01:30:37;;;;;;;8.30;7.40;;;6.20;99.90;;;;;;5032908;28;20029;-73
2022/04/30 01:38:32;;;;;;;19.30;7.60;;;6.20;99.90;;;;;;5032750;28;20028;-72
2022/04/30 01:40:57;;;;;;;14.25;7.78;;;6.30;99.90;;;;;;5033211;28;20029;-72
2022/04/30 01:43:24;;;;;;;13.43;7.43;;;6.30;99.90;;;;;;5033346;28;20481;-72
2022/04/30 01:45:50;;;;;;;11.27;7.50;;;6.30;99.90;;;;;;5032367;28;20394;-73
2022/04/30 01:48:16;;;;;;;12.88;8.20;;;6.40;99.90;;;;;;5033344;28;20032;-72
2022/04/30 01:50:43;;;;;;;10.63;7.80;;;6.40;99.90;;;;;;5032360;28;20112;-72
2022/04/30 01:53:09;;;;;;;10.32;7.53;;;6.40;99.90;;;;;;5032826;28;20055;-72
2022/04/30 01:55:36;;;;;;;11.00;7.53;;;6.30;99.90;;;;;;4997192;28;1039336;-72
2022/04/30 01:58:02;;;;;;;17.60;8.88;;;6.40;99.90;;;;;;5032967;28;20402;-72
2022/04/30 02:00:27;;;;;;;14.13;8.80;;;6.30;99.90;;;;;;5033974;28;20025;-72
2022/04/30 02:02:54;;;;;;;15.60;9.27;;;6.30;99.90;;;;;;5021619;28;20033;-72
2022/04/30 02:05:22;;;;;;;10.65;8.40;;;6.40;99.90;;;;;;5013579;28;20060;-72
2022/04/30 02:07:55;;;;;;;17.60;9.57;;;6.50;99.90;;;;;;5013948;28;20030;-73
2022/04/30 02:10:21;;;;;;;19.48;8.73;;;6.40;99.90;;;;;;5013908;28;20530;-72
2022/04/30 02:12:50;;;;;;;11.02;9.18;;;6.40;99.90;;;;;;5013246;28;20030;-72
2022/04/30 02:15:18;;;;;;;19.25;9.68;;;6.30;99.90;;;;;;5013811;28;20034;-72
2022/04/30 02:17:46;;;;;;;18.17;9.50;;;6.40;99.90;;;;;;5013921;28;20457;-72
2022/04/30 02:20:22;;;;;;;14.70;9.07;;;6.40;99.90;;;;;;5013000;28;20065;-71
2022/04/30 02:22:56;;;;;;;16.42;9.65;;;6.40;99.90;;;;;;5013600;28;20117;-72
2022/04/30 02:25:22;;;;;;;14.82;10.20;;;6.40;99.90;;;;;;5012923;28;20045;-71
2022/04/30 02:27:51;;;;;;;13.07;9.50;;;6.50;99.90;;;;;;5012549;28;20045;-71
2022/04/30 02:30:21;;;;;;;14.88;10.27;;;6.40;99.90;;;;;;5013754;28;20030;-72
2022/04/30 02:32:49;;;;;;;17.95;10.52;;;6.40;99.90;;;;;;5013663;28;20026;-74
2022/04/30 02:35:28;;;;;;;18.67;10.93;;;6.40;99.90;;;;;;5013549;28;20485;-73
2022/04/30 02:37:55;;;;;;;17.50;10.38;;;6.30;99.90;;;;;;5013296;28;20060;-73
2022/04/30 02:40:24;;;;;;;16.40;10.00;;;6.30;99.90;;;;;;5013218;28;20069;-71
2022/04/30 02:42:51;;;;;;;15.35;11.38;;;6.30;99.90;;;;;;5013319;28;20097;-72
2022/04/30 02:45:17;;;;;;;17.08;11.32;;;6.30;99.90;;;;;;5013438;28;20429;-72
2022/04/30 02:47:45;;;;;;;17.77;10.70;;;6.30;99.90;;;;;;5012789;28;20068;-72
2022/04/30 02:50:13;;;;;;;16.85;10.93;;;6.30;99.90;;;;;;5012946;28;20092;-72
2022/04/30 02:52:41;;;;;;;17.23;11.90;;;6.30;99.90;;;;;;5013391;28;20025;-72
2022/04/30 02:55:07;;;;;;;13.75;9.45;;;6.30;99.90;;;;;;5011802;28;20069;-72
2022/04/30 03:00:34;;;;;;;19.65;11.25;;;6.30;99.90;;;;;;5013346;28;20084;-72
2022/04/30 03:03:00;;;;;;;19.27;11.35;;;6.30;99.90;;;;;;5011979;28;20438;-73
2022/04/30 03:05:27;;;;;;;20.58;11.70;;;6.30;99.90;;;;;;5012960;28;20049;-72
2022/04/30 03:07:53;;;;;;;15.02;10.60;;;6.40;99.90;;;;;;5012859;28;20029;-73
2022/04/30 03:10:21;;;;;;;19.33;10.93;;;6.40;99.90;;;;;;5012364;28;20053;-72
2022/04/30 03:12:49;;;;;;;17.52;11.35;;;6.30;99.90;;;;;;5012940;28;20073;-72
2022/04/30 03:15:21;;;;;;;14.75;11.27;;;6.30;99.90;;;;;;5012059;28;20478;-72
2022/04/30 03:23:16;;;;;;;20.25;10.93;;;6.20;99.90;;;;;;5012089;28;20033;-71
2022/04/30 03:25:42;;;;;;;16.00;11.07;;;6.20;99.90;;;;;;5012843;28;20025;-73
2022/04/30 03:28:07;;;;;;;21.27;12.05;;;6.20;99.90;;;;;;5012358;28;20028;-72
2022/04/30 03:30:33;;;;;;;15.18;11.48;;;6.30;99.90;;;;;;5011750;28;20057;-72
2022/04/30 03:32:59;;;;;;;17.67;10.98;;;6.30;99.90;;;;;;5012500;28;20117;-72
2022/04/30 03:35:25;;;;;;;18.30;11.27;;;6.30;99.90;;;;;;5012599;28;20113;-73
2022/04/30 03:37:51;;;;;;;19.75;11.20;;;6.30;99.90;;;;;;5011295;28;20501;-72
2022/04/30 03:40:17;;;;;;;17.88;11.95;;;6.30;99.90;;;;;;5012486;28;20060;-72
2022/04/30 03:42:43;;;;;;;16.58;11.05;;;6.30;99.90;;;;;;5012420;28;20034;-71
2022/04/30 03:45:08;;;;;;;20.40;12.02;;;6.20;99.90;;;;;;5011560;28;20033;-71
2022/04/30 03:47:37;;;;;;;14.43;10.93;;;6.10;99.90;;;;;;5012663;28;20026;-72
2022/04/30 03:50:04;;;;;;;13.88;10.50;;;6.10;99.90;;;;;;5012161;28;20041;-72
2022/04/30 03:52:30;;;;;;;14.73;10.70;;;6.10;99.90;;;;;;5011796;28;20037;-72
2022/04/30 03:54:56;;;;;;;16.20;10.35;;;6.10;99.90;;;;;;5011729;28;20026;-72
2022/04/30 03:57:21;;;;;;;18.23;11.30;;;6.00;99.90;;;;;;5011628;28;20036;-72
2022/04/30 03:59:47;;;;;;;16.95;10.32;;;5.90;99.90;;;;;;5012168;28;20486;-73
2022/04/30 04:02:13;;;;;;;15.88;10.18;;;5.80;99.90;;;;;;5012286;28;20029;-73
2022/04/30 04:04:41;;;;;;;14.02;11.52;;;5.80;99.90;;;;;;5011461;28;20367;-72
2022/04/30 04:07:07;;;;;;;15.00;10.40;;;5.70;99.90;;;;;;5011954;28;20045;-72
2022/04/30 04:09:32;;;;;;;15.95;10.25;;;5.80;99.90;;;;;;5012148;28;20459;-73
2022/04/30 04:11:58;;;;;;;19.98;10.07;;;5.90;99.90;;;;;;5011361;28;20026;-73
2022/04/30 04:19:52;;;;;;;13.10;8.02;;;6.10;99.90;;;;;;5010758;28;20033;-72
2022/04/30 04:22:17;;;;;;;9.35;8.05;;;6.30;99.90;;;;;;5011963;28;20039;-73
2022/04/30 04:27:29;;;;;;;10.30;7.82;;;6.40;99.90;;;;;;5011225;28;20029;-72
2022/04/30 04:29:55;;;;;;;9.18;7.50;;;6.50;99.90;;;;;;5011559;28;20469;-72
2022/04/30 04:32:22;;;;;;;9.43;7.88;;;6.50;99.90;;;;;;5011659;28;20041;-73
2022/04/30 04:34:48;;;;;;;12.27;7.78;;;6.60;99.90;;;;;;5011422;28;20033;-72
2022/04/30 04:37:14;;;;;;;9.25;7.90;;;6.60;99.90;;;;;;5011748;28;20037;-71
2022/04/30 04:39:40;;;;;;;9.65;7.28;;;6.80;99.90;;;;;;5011469;28;20026;-72
2022/04/30 04:42:07;;;;;;;13.73;7.75;;;6.80;99.90;;;;;;5011615;28;20049;-72
2022/04/30 04:44:33;;;;;;;11.02;7.07;;;6.90;99.90;;;;;;5011884;28;20050;-71
2022/04/30 04:47:00;;;;;;;9.32;7.10;;;7.00;99.90;;;;;;5010783;28;20127;-73
2022/04/30 04:49:26;;;;;;;11.15;8.05;;;7.10;99.90;;;;;;5013332;28;20037;-72
2022/04/30 04:51:52;;;;;;;9.63;7.60;;;7.20;99.90;;;;;;5015593;28;20029;-72
2022/04/30 04:54:17;;;;;;;8.25;6.95;;;7.30;99.90;;;;;;5014613;28;20041;-72
2022/04/30 04:56:44;;;;;;;14.40;7.43;;;7.30;99.90;;;;;;5014971;28;20058;-72
2022/04/30 04:59:09;;;;;;;11.52;7.15;;;7.30;99.90;;;;;;5014965;28;20037;-72
2022/04/30 05:01:36;;;;;;;11.45;7.43;;;7.40;99.90;;;;;;5014430;28;20429;-72
2022/04/30 05:04:02;;;;;;;7.85;6.63;;;7.50;99.90;;;;;;5015030;28;20034;-73
2022/04/30 05:06:27;;;;;;;9.15;7.43;;;7.60;99.90;;;;;;5015340;28;20030;-74
2022/04/30 05:08:53;;;;;;;11.55;7.20;;;7.60;99.90;;;;;;5014829;28;20065;-73
2022/04/30 05:11:19;;;;;;;9.20;7.60;;;7.70;99.90;;;;;;5016781;28;20033;-74
2022/04/30 05:13:44;;;;;;;11.48;7.80;;;7.70;99.90;;;;;;5015070;28;20034;-72
2022/04/30 05:16:10;;;;;;;8.15;6.47;;;7.70;99.90;;;;;;5013824;28;20044;-73
2022/04/30 05:18:35;;;;;;;10.88;6.80;;;7.80;99.90;;;;;;5015272;28;20018;-71
2022/04/30 05:21:01;;;;;;;11.98;6.88;;;7.90;99.90;;;;;;5014800;28;20034;-73
2022/04/30 05:23:27;;;;;;;10.55;6.82;;;7.90;99.90;;;;;;5014329;28;20068;-73
2022/04/30 05:25:54;;;;;;;9.85;6.78;;;7.90;99.90;;;;;;5014653;28;20084;-72
2022/04/30 05:28:20;;;;;;;9.13;6.25;;;8.00;99.90;;;;;;5014808;28;20061;-72
2022/04/30 05:30:46;;;;;;;9.55;6.68;;;8.00;99.90;;;;;;5013883;28;20386;-72
2022/04/30 05:33:11;;;;;;;9.05;6.60;;;8.00;99.90;;;;;;5014292;28;20022;-73
2022/04/30 05:35:37;;;;;;;10.88;6.80;;;8.00;99.90;;;;;;5014369;28;20108;-73
2022/04/30 05:38:02;;;;;;;8.35;6.00;;;8.00;99.90;;;;;;5013576;28;20030;-73
2022/04/30 05:40:28;;;;;;;7.00;6.03;;;8.10;99.90;;;;;;5014614;28;20022;-72
2022/04/30 05:42:54;;;;;;;8.70;6.55;;;8.10;99.90;;;;;;5013514;28;20030;-73
2022/04/30 05:45:19;;;;;;;8.18;7.38;;;8.20;99.90;;;;;;5014444;28;20033;-73
2022/04/30 05:47:45;;;;;;;8.63;6.60;;;8.30;99.90;;;;;;5014216;28;20029;-72
2022/04/30 05:50:10;;;;;;;15.70;7.15;;;8.30;99.90;;;;;;5013133;28;20055;-73
2022/04/30 05:52:36;;;;;;;11.57;7.10;;;8.30;99.90;;;;;;5014398;28;20025;-72
2022/04/30 05:55:02;;;;;;;8.02;6.80;;;8.30;99.90;;;;;;5013841;28;20053;-73
2022/04/30 05:57:29;;;;;;;9.88;6.50;;;8.30;99.90;;;;;;5013583;28;20033;-72
2022/04/30 05:59:55;;;;;;;10.13;7.65;;;8.40;99.90;;;;;;5013404;28;20026;-72
2022/04/30 06:02:21;;;;;;;11.48;6.78;;;8.50;99.90;;;;;;5013333;28;20026;-72
2022/04/30 06:04:47;;;;;;;11.50;6.80;;;8.60;99.90;;;;;;5013606;28;20022;-73
2022/04/30 06:07:12;;;;;;;7.75;6.15;;;8.60;99.90;;;;;;5013940;28;20038;-73
2022/04/30 06:09:38;;;;;;;8.18;6.75;;;8.70;99.90;;;;;;5013997;28;20060;-73
2022/04/30 06:12:05;;;;;;;8.55;6.45;;;8.80;99.90;;;;;;5013024;28;20021;-73
2022/04/30 06:14:30;;;;;;;8.23;5.93;;;8.90;99.90;;;;;;5013881;28;20044;-73
2022/04/30 06:16:57;;;;;;;9.27;5.28;;;9.00;99.90;;;;;;5013476;28;20037;-73
2022/04/30 06:19:22;;;;;;;6.65;5.22;;;9.10;99.90;;;;;;5013076;28;20029;-72
2022/04/30 06:21:48;;;;;;;10.27;5.57;;;9.10;99.90;;;;;;5013502;28;20022;-73
2022/04/30 06:24:14;;;;;;;8.63;5.25;;;9.10;99.90;;;;;;5013773;28;20053;-73
2022/04/30 06:26:40;;;;;;;9.68;5.95;;;9.20;99.90;;;;;;5013009;28;20022;-74
2022/04/30 06:29:06;;;;;;;7.47;5.35;;;9.20;99.90;;;;;;5013259;28;20109;-72
2022/04/30 06:31:32;;;;;;;5.45;4.90;;;9.30;99.90;;;;;;5013667;28;20536;-72
2022/04/30 06:34:00;;;;;;;8.55;4.80;;;9.30;99.90;;;;;;5013156;28;20021;-73
2022/04/30 06:36:26;;;;;;;3.70;3.35;;;9.30;99.90;;;;;;5013703;28;20120;-73
2022/04/30 06:38:52;;;;;;;9.95;4.00;;;9.30;99.90;;;;;;5013278;28;20113;-73
2022/04/30 06:41:19;;;;;;;5.25;3.88;;;9.30;99.90;;;;;;5012610;28;20030;-72
2022/04/30 06:43:44;;;;;;;6.07;3.67;;;9.30;99.90;;;;;;5013579;28;20061;-72
2022/04/30 06:46:10;;;;;;;6.15;4.18;;;9.40;99.90;;;;;;5011880;28;20115;-73
2022/04/30 06:48:36;;;;;;;9.25;5.25;;;9.40;99.90;;;;;;5013534;28;20029;-73
2022/04/30 06:51:01;;;;;;;8.48;6.20;;;9.30;99.90;;;;;;5013206;28;20470;-73
2022/04/30 06:58:59;;;;;;;7.28;5.68;;;9.40;99.90;;;;;;5012794;28;20072;-72
2022/04/30 07:01:38;;;;;;;6.47;5.88;;;9.50;99.90;;;;;;5012242;28;20585;-72
2022/04/30 07:04:07;;;;;;;13.57;7.72;;;9.50;99.90;;;;;;5012750;28;20034;-72
2022/04/30 07:06:34;;;;;;;8.35;5.55;;;9.60;99.90;;;;;;5013082;28;20049;-73
2022/04/30 07:09:02;;;;;;;6.55;5.95;;;9.60;99.90;;;;;;5011946;28;20065;-73
2022/04/30 07:11:27;;;;;;;9.20;5.60;;;9.70;99.90;;;;;;5012437;28;20471;-73
2022/04/30 07:13:53;;;;;;;9.48;6.13;;;9.80;99.90;;;;;;5012621;28;20049;-73
2022/04/30 07:16:19;;;;;;;11.50;5.72;;;9.90;99.90;;;;;;5012298;28;20030;-73
2022/04/30 07:18:45;;;;;;;7.22;5.53;;;9.90;99.90;;;;;;5013021;28;20022;-73
2022/04/30 07:21:10;;;;;;;7.85;5.20;;;9.80;99.90;;;;;;5012197;28;20398;-73
2022/04/30 07:23:36;;;;;;;8.65;5.28;;;9.90;99.90;;;;;;5012365;28;20458;-73
2022/04/30 07:26:01;;;;;;;7.32;5.53;;;9.80;99.90;;;;;;5012524;28;20033;-73
2022/04/30 07:28:35;;;;;;;6.13;5.25;;;9.80;99.90;;;;;;5012141;28;20470;-73
2022/04/30 07:31:02;;;;;;;6.22;5.50;;;9.80;99.90;;;;;;5012370;28;20057;-73
2022/04/30 07:33:28;;;;;;;9.00;5.90;;;10.00;99.90;;;;;;5012583;28;20364;-72
2022/04/30 07:35:54;;;;;;;7.80;5.90;;;10.00;99.90;;;;;;5011445;28;20041;-73
2022/04/30 07:38:23;;;;;;;8.63;5.25;;;10.10;99.90;;;;;;5012455;28;20040;-72
2022/04/30 07:40:48;;;;;;;7.38;5.22;;;10.10;99.90;;;;;;5012571;28;20038;-72
2022/04/30 07:43:14;;;;;;;7.68;5.50;;;10.20;99.90;;;;;;5011866;28;20026;-72
2022/04/30 07:45:40;;;;;;;12.95;5.78;;;10.20;99.90;;;;;;5012448;28;20363;-72
2022/04/30 07:48:06;;;;;;;6.72;5.10;;;10.40;99.90;;;;;;5011983;28;20374;-72
2022/04/30 07:50:35;;;;;;;5.22;4.78;;;10.50;99.90;;;;;;5012261;28;20026;-72
2022/04/30 07:53:13;;;;;;;7.63;5.38;;;10.60;99.90;;;;;;5012165;28;20057;-73
2022/04/30 07:55:40;;;;;;;6.15;4.85;;;10.70;99.90;;;;;;5012494;28;20331;-72
2022/04/30 07:58:05;;;;;;;10.95;5.22;;;10.70;99.90;;;;;;5011354;28;20030;-72
2022/04/30 08:00:31;;;;;;;12.02;5.70;;;10.80;99.90;;;;;;5012301;28;20025;-72
2022/04/30 08:02:58;;;;;;;7.93;5.38;;;10.90;99.90;;;;;;5012141;28;20584;-72
2022/04/30 08:05:24;;;;;;;10.82;7.20;;;11.00;99.90;;;;;;5011527;28;20547;-72
2022/04/30 08:07:50;;;;;;;8.00;5.32;;;10.80;99.90;;;;;;5011985;28;20025;-73
2022/04/30 08:10:16;;;;;;;5.75;5.18;;;10.70;99.90;;;;;;5012216;28;20022;-72
2022/04/30 08:12:42;;;;;;;9.15;4.43;;;10.60;99.90;;;;;;5011588;28;20054;-72
2022/04/30 08:15:07;;;;;;;6.78;4.43;;;10.60;99.90;;;;;;5011717;28;20037;-73
2022/04/30 08:17:33;;;;;;;8.45;5.05;;;10.50;99.90;;;;;;5011508;28;20033;-74
2022/04/30 08:19:58;;;;;;;8.07;5.35;;;10.50;99.90;;;;;;5011728;28;20029;-72
2022/04/30 08:22:24;;;;;;;9.75;5.22;;;10.60;99.90;;;;;;5012257;28;20032;-72
2022/04/30 08:24:50;;;;;;;8.18;4.93;;;10.70;99.90;;;;;;5013474;28;20061;-73
2022/04/30 08:27:15;;;;;;;7.28;4.68;;;10.90;99.90;;;;;;5015884;28;20394;-72
2022/04/30 08:29:41;;;;;;;5.95;4.43;;;11.00;99.90;;;;;;5015902;28;20026;-73
2022/04/30 08:32:07;;;;;;;6.80;4.50;;;11.20;99.90;;;;;;5014904;28;20466;-73
2022/04/30 08:34:32;;;;;;;7.15;4.28;;;11.40;99.90;;;;;;5015766;28;20536;-73
2022/04/30 08:36:58;;;;;;;7.45;5.03;;;11.60;99.90;;;;;;5015486;28;20034;-73
2022/04/30 08:39:24;;;;;;;8.80;4.78;;;11.70;99.90;;;;;;5015299;28;20053;-73
2022/04/30 08:41:50;;;;;;;6.13;4.80;;;11.70;99.90;;;;;;5015292;28;20030;-73
2022/04/30 08:44:17;;;;;;;10.70;4.60;;;11.60;99.90;;;;;;5015606;28;20033;-74
2022/04/30 08:46:44;;;;;;;8.50;4.72;;;11.50;99.90;;;;;;5014974;28;20022;-72
2022/04/30 08:49:10;;;;;;;7.03;5.10;;;11.30;99.90;;;;;;5016260;28;20137;-73
2022/04/30 08:51:37;;;;;;;5.97;4.05;;;11.30;99.90;;;;;;5015867;28;20058;-72
2022/04/30 08:54:06;;;;;;;4.35;3.95;;;11.30;99.90;;;;;;5014755;28;20153;-72
2022/04/30 08:56:35;;;;;;;5.13;4.60;;;11.20;99.90;;;;;;5016560;28;20049;-73
2022/04/30 08:59:03;;;;;;;7.65;4.78;;;11.50;99.90;;;;;;5014939;28;20041;-72
2022/04/30 09:01:29;;;;;;;4.35;3.80;;;11.70;99.90;;;;;;5014633;28;20109;-72
2022/04/30 09:03:55;;;;;;;8.23;5.03;;;11.90;99.90;;;;;;5014946;28;20141;-73
2022/04/30 09:06:21;;;;;;;7.65;4.35;;;12.10;99.90;;;;;;5015043;28;20490;-72
2022/04/30 09:08:51;;;;;;;4.18;3.80;;;12.20;99.90;;;;;;5014415;28;20075;-72
2022/04/30 09:11:25;;;;;;;4.60;3.47;;;12.00;99.90;;;;;;5015275;28;20054;-72
2022/04/30 09:13:51;;;;;;;7.65;4.50;;;11.90;99.90;;;;;;5014079;28;20045;-72
2022/04/30 09:16:21;;;;;;;6.57;3.40;;;11.60;99.90;;;;;;5014914;28;20034;-72
2022/04/30 09:18:48;;;;;;;4.75;3.85;;;11.50;99.90;;;;;;5015193;28;20026;-72
2022/04/30 09:21:15;;;;;;;4.18;3.70;;;11.50;99.90;;;;;;5014318;28;20034;-73
2022/04/30 09:23:41;;;;;;;5.22;3.92;;;11.50;99.90;;;;;;5014946;28;20042;-73
2022/04/30 09:26:09;;;;;;;8.70;3.90;;;11.40;99.90;;;;;;5014486;28;20104;-73
2022/04/30 09:28:37;;;;;;;4.22;3.83;;;11.20;99.90;;;;;;5014075;28;20422;-72
2022/04/30 09:31:20;;;;;;;5.53;3.80;;;11.00;99.90;;;;;;5014319;28;20044;-72
2022/04/30 09:33:55;;;;;;;4.18;3.65;;;10.90;99.90;;;;;;5014822;28;20109;-72
2022/04/30 09:39:19;;;;;;;4.40;4.00;;;10.90;99.90;;;;;;5014185;28;20398;-73
2022/04/30 09:41:46;;;;;;;6.05;4.30;;;10.90;99.90;;;;;;5014752;28;20030;-72
2022/04/30 09:44:16;;;;;;;6.75;4.15;;;10.80;99.90;;;;;;5013699;28;20025;-73
2022/04/30 09:46:41;;;;;;;4.60;3.90;;;10.90;99.90;;;;;;5014582;28;20026;-73
2022/04/30 09:54:40;;;;;;;12.63;4.25;;;11.00;99.90;;;;;;5014092;28;20126;-74
2022/04/30 09:57:09;;;;;;;9.30;4.32;;;11.00;99.90;;;;;;5013331;28;20140;-73
2022/04/30 09:59:37;;;;;;;4.18;3.78;;;11.00;99.90;;;;;;5014253;28;20022;-72
2022/04/30 10:02:04;;;;;;;6.95;4.40;;;11.10;99.90;;;;;;5013668;28;20038;-72
2022/04/30 10:04:31;;;;;;;5.70;4.50;;;11.20;99.90;;;;;;5013698;28;20045;-73
2022/04/30 10:07:00;;;;;;;5.68;4.25;;;11.20;99.90;;;;;;5014099;28;20030;-72
2022/04/30 10:09:31;;;;;;;7.88;4.05;;;12.10;99.90;;;;;;5014748;28;20072;-72
2022/04/30 10:12:09;;;;;;;6.60;3.00;;;11.30;99.90;;;;;;5013127;28;20116;-72
2022/04/30 10:14:50;;;;;;;5.00;2.75;;;11.20;99.90;;;;;;5013875;28;20030;-71
2022/04/30 10:17:17;;;;;;;6.53;4.30;;;11.00;99.90;;;;;;5015161;28;20443;-73
2022/04/30 10:20:32;;;;;;;3.90;2.97;;;11.00;99.90;;;;;;5014117;28;20057;-73
2022/04/30 10:22:54;;;;;;;4.10;2.80;;;11.20;99.90;;;;;;5013405;28;20057;-73
2022/04/30 10:25:41;;;;;;;2.90;2.22;;;11.30;99.90;;;;;;5012974;28;20052;-72
2022/04/30 10:28:23;;;;;;;3.25;2.22;;;11.30;99.90;;;;;;5013398;28;20168;-73
2022/04/30 10:31:00;;;;;;;4.93;2.42;;;11.30;99.90;;;;;;5013262;28;20558;-71
2022/04/30 10:33:26;;;;;;;7.28;2.88;;;11.40;99.90;;;;;;5012893;28;20029;-72
2022/04/30 10:36:03;;;;;;;2.33;2.13;;;11.50;99.90;;;;;;5013253;28;20034;-72
2022/04/30 10:38:28;;;;;;;2.20;2.00;;;11.50;99.90;;;;;;5012831;28;20040;-73
2022/04/30 10:41:00;;;;;;;8.73;2.65;;;11.50;99.90;;;;;;5013212;28;20022;-73
2022/04/30 10:43:42;;;;;;;7.38;2.35;;;11.70;99.90;;;;;;5013332;28;20028;-73
2022/04/30 10:46:14;;;;;;;2.88;2.53;;;11.70;99.90;;;;;;5012250;28;20125;-74
2022/04/30 10:48:39;;;;;;;3.08;2.80;;;11.80;99.90;;;;;;5013079;28;20494;-73
2022/04/30 10:51:13;;;;;;;3.03;2.83;;;11.90;99.90;;;;;;5012964;28;20115;-74
2022/04/30 10:53:45;;;;;;;4.63;2.85;;;12.10;99.90;;;;;;5012531;28;20425;-74
2022/04/30 10:56:12;;;;;;;3.20;2.85;;;12.30;99.90;;;;;;5012535;28;20159;-72
2022/04/30 10:58:39;;;;;;;3.22;2.95;;;12.30;99.90;;;;;;5013103;28;20100;-73
2022/04/30 11:01:12;;;;;;;7.05;3.00;;;12.20;99.90;;;;;;5012067;28;20030;-73
2022/04/30 11:03:37;;;;;;;6.32;2.55;;;12.40;99.90;;;;;;5013064;28;20097;-74
2022/04/30 11:06:03;;;;;;;4.28;2.60;;;12.60;99.90;;;;;;5012767;28;20100;-73
2022/04/30 11:08:28;;;;;;;2.83;2.55;;;12.80;99.90;;;;;;5012218;28;20085;-75
2022/04/30 11:10:55;;;;;;;3.33;2.65;;;12.80;99.80;;;;;;5012534;28;20109;-73
2022/04/30 11:13:21;;;;;;;7.60;2.67;;;12.80;99.80;;;;;;5012236;28;20093;-73
2022/04/30 11:15:48;;;;;;;4.95;2.40;;;12.70;99.90;;;;;;5012808;28;20029;-73
2022/04/30 11:18:20;;;;;;;4.70;2.40;;;12.70;99.90;;;;;;5012984;28;20072;-73
2022/04/30 11:20:46;;;;;;;4.07;2.65;;;12.90;99.90;;;;;;5012462;28;20076;-73
2022/04/30 11:23:22;;;;;;;6.57;2.60;;;12.90;99.90;;;;;;5012472;28;20038;-72
2022/04/30 11:25:48;;;;;;;3.35;2.70;;;13.00;99.90;;;;;;5012722;28;20155;-73
2022/04/30 11:28:13;;;;;;;4.05;2.60;;;12.90;99.90;;;;;;5012187;28;20105;-73
2022/04/30 11:30:40;;;;;;;5.88;3.63;;;12.80;99.90;;;;;;5012679;28;20026;-72
2022/04/30 11:33:07;;;;;;;6.75;2.78;;;12.60;99.90;;;;;;5012405;28;20054;-72
2022/04/30 11:35:33;;;;;;;4.72;2.78;;;12.60;99.90;;;;;;5011711;28;20034;-72
2022/04/30 11:37:59;;;;;;;3.85;2.70;;;12.50;99.90;;;;;;5012157;28;20048;-72
2022/04/30 11:40:26;;;;;;;4.90;2.35;;;12.40;99.90;;;;;;5012367;28;20053;-73
2022/04/30 11:42:55;;;;;;;3.00;2.63;;;12.30;99.90;;;;;;5011567;28;20022;-73
2022/04/30 11:45:31;;;;;;;7.00;2.65;;;12.10;99.90;;;;;;5012554;28;20029;-72
2022/04/30 11:47:58;;;;;;;6.30;2.40;;;12.20;99.90;;;;;;5012333;28;20030;-72
2022/04/30 11:50:25;;;;;;;5.82;2.42;;;12.10;99.90;;;;;;5011713;28;20033;-73
2022/04/30 11:52:50;;;;;;;9.88;2.25;;;12.20;99.90;;;;;;5012255;28;20072;-73
2022/04/30 11:55:17;;;;;;;4.65;2.28;;;12.00;99.90;;;;;;5012230;28;20386;-73
2022/04/30 11:57:44;;;;;;;3.83;2.50;;;12.00;99.90;;;;;;5012213;28;20474;-73
2022/04/30 12:00:11;;;;;;;5.28;2.42;;;12.00;99.90;;;;;;5016203;28;20030;-72
2022/04/30 12:02:39;;;;;;;3.28;2.22;;;11.90;99.90;;;;;;5015667;28;20040;-72
2022/04/30 12:05:06;;;;;;;4.63;1.95;;;12.00;99.90;;;;;;5015853;28;20068;-72
2022/04/30 12:07:43;;;;;;;3.83;2.63;;;12.10;99.90;;;;;;5016166;28;20041;-73
2022/04/30 12:10:19;;;;;;;3.97;2.28;;;12.40;99.90;;;;;;5015295;28;20026;-72
2022/04/30 12:12:46;;;;;;;3.47;2.30;;;12.40;99.90;;;;;;5016417;28;20413;-72
2022/04/30 12:15:18;;;;;;;6.93;2.03;;;12.60;99.90;;;;;;5015822;28;20029;-72
2022/04/30 12:17:43;;;;;;;1.90;1.77;;;12.60;99.90;;;;;;5015421;28;20088;-73
2022/04/30 12:25:48;;;;;;;4.68;1.85;;;12.70;99.90;;;;;;5014818;28;20123;-73
2022/04/30 12:28:16;;;;;;;2.65;1.88;;;12.70;99.90;;;;;;5015844;28;20120;-72
2022/04/30 12:30:53;;;;;;;3.40;1.75;;;12.80;99.90;;;;;;5015121;28;20069;-72
2022/04/30 12:33:20;;;;;;;2.20;2.00;;;12.90;99.90;;;;;;5015893;28;20061;-73
2022/04/30 12:35:56;;;;;;;2.28;1.83;;;12.80;99.90;;;;;;5015813;28;20030;-73
2022/04/30 12:38:22;;;;;;;2.25;1.77;;;12.80;99.90;;;;;;5015123;28;20385;-74
2022/04/30 12:40:48;;;;;;;6.82;2.47;;;12.80;99.90;;;;;;5015412;28;20021;-73
2022/04/30 12:43:14;;;;;;;2.75;1.60;;;13.00;99.90;;;;;;5015681;28;20032;-73
2022/04/30 12:45:48;;;;;;;1.88;1.48;;;13.10;99.90;;;;;;5014870;28;20470;-73
2022/04/30 12:48:14;;;;;;;3.75;2.05;;;13.20;99.90;;;;;;5015603;28;20076;-73
2022/04/30 12:50:40;;;;;;;7.35;3.05;;;13.30;99.90;;;;;;5015769;28;20059;-73
2022/04/30 12:53:09;;;;;;;8.45;2.22;;;13.40;99.90;;;;;;5014374;28;20022;-73
2022/04/30 12:55:38;;;;;;;3.40;1.85;;;13.30;99.90;;;;;;5015425;28;20054;-73
2022/04/30 12:58:03;;;;;;;5.43;2.22;;;13.40;99.90;;;;;;5015969;28;20030;-72
2022/04/30 13:00:29;;;;;;;13.50;9.40;;;13.80;99.90;;;;;;5014573;28;20032;-72
2022/04/30 13:02:54;;;;;;;8.82;2.03;;;13.50;99.80;;;;;;5014962;28;20026;-72
2022/04/30 13:05:20;;;;;;;2.40;1.67;;;13.50;99.90;;;;;;5015270;28;20123;-72
2022/04/30 13:07:45;;;;;;;3.05;1.98;;;13.30;99.70;;;;;;5015285;28;20042;-72
2022/04/30 13:15:44;;;;;;;3.42;2.00;;;13.30;99.90;;;;;;5014843;28;20040;-73
2022/04/30 13:18:10;;;;;;;3.83;1.92;;;13.40;99.90;;;;;;5014182;28;20518;-73
2022/04/30 13:20:36;;;;;;;8.98;1.63;;;13.30;99.80;;;;;;5014275;28;20026;-73
2022/04/30 13:23:02;;;;;;;3.28;1.90;;;13.10;99.90;;;;;;5014682;28;20022;-73
2022/04/30 13:25:31;;;;;;;4.43;2.13;;;13.20;99.90;;;;;;5014911;28;20030;-73
2022/04/30 13:27:57;;;;;;;2.85;1.92;;;13.40;99.90;;;;;;5013795;28;20022;-72
2022/04/30 13:30:24;;;;;;;3.88;2.08;;;13.60;99.60;;;;;;5014711;28;20069;-72
2022/04/30 13:32:49;;;;;;;5.00;2.28;;;13.50;99.90;;;;;;5014425;28;20037;-72
2022/04/30 13:35:16;;;;;;;3.55;2.35;;;13.50;99.70;;;;;;5013852;28;20030;-72
2022/04/30 13:37:42;;;;;;;2.83;2.15;;;13.50;99.80;;;;;;5014700;28;20080;-72